createdAt,value
2018-05-27T00:01:19.901Z,21.70
2018-05-27T00:03:48.178Z,21.60
2018-05-27T00:06:16.477Z,21.60
2018-05-27T00:08:45.269Z,21.60
2018-05-27T00:11:12.796Z,21.60
2018-05-27T00:13:40.290Z,21.60
2018-05-27T00:16:07.784Z,21.60
2018-05-27T00:18:36.045Z,21.50
2018-05-27T00:21:03.539Z,21.50
2018-05-27T00:23:31.797Z,21.50
2018-05-27T00:25:59.465Z,21.40
2018-05-27T00:28:27.031Z,21.40
2018-05-27T00:30:54.587Z,21.30
2018-05-27T00:33:22.077Z,21.30
2018-05-27T00:35:49.559Z,21.20
2018-05-27T00:38:17.039Z,21.00
2018-05-27T00:40:44.548Z,21.00
2018-05-27T00:43:14.041Z,20.90
2018-05-27T00:45:41.520Z,20.80
2018-05-27T00:48:09.021Z,20.70
2018-05-27T00:50:36.641Z,20.70
2018-05-27T00:53:04.145Z,20.70
2018-05-27T00:55:32.385Z,20.60
2018-05-27T00:58:00.093Z,20.60
2018-05-27T01:00:28.355Z,20.50
2018-05-27T01:02:56.643Z,20.50
2018-05-27T01:05:24.949Z,20.50
2018-05-27T01:07:52.421Z,20.40
2018-05-27T01:10:19.881Z,20.40
2018-05-27T01:12:47.392Z,20.30
2018-05-27T01:15:15.622Z,20.20
2018-05-27T01:17:43.111Z,20.20
2018-05-27T01:20:11.354Z,20.20
2018-05-27T01:22:40.851Z,20.10
2018-05-27T01:25:10.186Z,20.10
2018-05-27T01:27:38.455Z,20.10
2018-05-27T01:30:05.967Z,20.00
2018-05-27T01:32:37.258Z,20.00
2018-05-27T01:35:05.494Z,19.90
2018-05-27T01:37:32.970Z,19.90
2018-05-27T01:40:00.564Z,19.90
2018-05-27T01:42:28.045Z,19.90
2018-05-27T01:44:55.533Z,19.80
2018-05-27T01:47:23.003Z,19.80
2018-05-27T01:49:50.510Z,19.70
2018-05-27T01:52:18.001Z,19.70
2018-05-27T01:54:47.260Z,19.60
2018-05-27T01:57:14.775Z,19.60
2018-05-27T01:59:42.273Z,19.60
2018-05-27T02:02:09.745Z,19.50
2018-05-27T02:04:37.262Z,19.50
2018-05-27T02:07:05.535Z,19.40
2018-05-27T02:09:33.774Z,19.40
2018-05-27T02:12:01.276Z,19.30
2018-05-27T02:14:29.555Z,19.30
2018-05-27T02:16:58.342Z,19.30
2018-05-27T02:19:25.928Z,19.30
2018-05-27T02:21:53.413Z,19.30
2018-05-27T02:24:20.917Z,19.30
2018-05-27T02:26:48.398Z,19.30
2018-05-27T02:29:15.896Z,19.30
2018-05-27T02:31:46.007Z,19.30
2018-05-27T02:34:13.494Z,19.30
2018-05-27T02:36:41.317Z,19.30
2018-05-27T02:39:08.792Z,19.30
2018-05-27T02:41:36.335Z,19.30
2018-05-27T02:44:03.856Z,19.30
2018-05-27T02:46:31.401Z,19.30
2018-05-27T02:48:59.354Z,19.20
2018-05-27T02:51:27.605Z,19.20
2018-05-27T02:53:56.019Z,19.20
2018-05-27T02:56:23.590Z,19.20
2018-05-27T02:58:51.094Z,19.20
2018-05-27T03:01:18.775Z,19.20
2018-05-27T03:03:47.046Z,19.10
2018-05-27T03:06:15.323Z,19.00
2018-05-27T03:08:42.866Z,19.00
2018-05-27T03:11:10.401Z,19.00
2018-05-27T03:13:37.900Z,19.00
2018-05-27T03:16:06.185Z,19.00
2018-05-27T03:18:33.667Z,18.90
2018-05-27T03:21:01.181Z,18.90
2018-05-27T03:23:29.907Z,18.90
2018-05-27T03:25:57.457Z,18.90
2018-05-27T03:28:25.029Z,18.90
2018-05-27T03:30:52.884Z,18.80
2018-05-27T03:33:20.413Z,18.80
2018-05-27T03:35:48.675Z,18.80
2018-05-27T03:38:17.721Z,18.80
2018-05-27T03:40:45.298Z,18.80
2018-05-27T03:43:13.638Z,18.90
2018-05-27T03:45:41.129Z,18.90
2018-05-27T03:48:08.647Z,19.00
2018-05-27T03:50:36.170Z,19.00
2018-05-27T03:53:03.710Z,19.10
2018-05-27T03:55:31.238Z,19.20
2018-05-27T03:57:59.848Z,19.30
2018-05-27T04:00:27.392Z,19.40
2018-05-27T04:02:54.915Z,19.60
2018-05-27T04:05:34.315Z,19.90
2018-05-27T04:08:14.368Z,20.60
2018-05-27T04:10:42.646Z,21.00
2018-05-27T04:13:11.970Z,21.00
2018-05-27T04:15:39.450Z,21.40
2018-05-27T04:18:07.021Z,21.80
2018-05-27T04:20:34.548Z,22.30
2018-05-27T04:23:02.216Z,22.70
2018-05-27T04:25:30.287Z,23.00
2018-05-27T04:27:57.821Z,23.30
2018-05-27T04:30:25.513Z,23.50
2018-05-27T04:32:52.997Z,23.70
2018-05-27T04:35:20.529Z,24.00
2018-05-27T04:37:48.025Z,24.20
2018-05-27T04:40:15.727Z,24.60
2018-05-27T04:42:43.247Z,24.90
2018-05-27T04:45:10.848Z,25.30
2018-05-27T04:47:38.973Z,25.70
2018-05-27T04:50:06.526Z,25.70
2018-05-27T04:52:33.997Z,25.50
2018-05-27T04:55:02.301Z,25.00
2018-05-27T04:57:30.522Z,25.00
2018-05-27T05:00:00.053Z,24.90
2018-05-27T05:02:28.314Z,24.50
2018-05-27T05:04:55.867Z,24.50
2018-05-27T05:07:23.551Z,24.30
2018-05-27T05:09:52.132Z,24.20
2018-05-27T05:12:20.371Z,24.60
2018-05-27T05:14:47.884Z,24.60
2018-05-27T05:17:15.462Z,24.90
2018-05-27T05:19:42.977Z,25.40
2018-05-27T05:22:10.517Z,26.00
2018-05-27T05:24:38.870Z,27.30
2018-05-27T05:27:06.571Z,27.20
2018-05-27T05:29:34.055Z,27.90
2018-05-27T05:32:01.595Z,28.50
2018-05-27T05:34:29.234Z,28.80
2018-05-27T05:36:56.741Z,29.00
2018-05-27T05:39:24.266Z,28.80
2018-05-27T05:41:52.542Z,28.10
2018-05-27T05:44:20.794Z,27.80
2018-05-27T05:46:48.296Z,27.80
2018-05-27T05:49:15.810Z,27.60
2018-05-27T05:51:44.468Z,27.40
2018-05-27T05:54:12.026Z,27.40
2018-05-27T05:56:39.553Z,27.50
2018-05-27T05:59:07.037Z,27.90
2018-05-27T06:01:34.550Z,28.60
2018-05-27T06:04:02.062Z,29.30
2018-05-27T06:06:31.154Z,30.80
2018-05-27T06:08:58.635Z,30.80
2018-05-27T06:11:26.928Z,32.20
2018-05-27T06:13:55.193Z,32.60
2018-05-27T06:16:22.666Z,32.60
2018-05-27T06:18:50.282Z,32.90
2018-05-27T06:21:17.807Z,33.30
2018-05-27T06:23:45.315Z,33.80
2018-05-27T06:26:13.569Z,34.70
2018-05-27T06:28:41.113Z,34.60
2018-05-27T06:31:08.602Z,34.90
2018-05-27T06:33:36.110Z,34.90
2018-05-27T06:36:03.614Z,34.70
2018-05-27T06:38:31.931Z,33.50
2018-05-27T06:40:59.893Z,33.50
2018-05-27T06:43:27.521Z,33.00
2018-05-27T06:45:55.781Z,32.50
2018-05-27T06:48:23.265Z,32.50
2018-05-27T06:53:26.227Z,33.30
2018-05-27T06:55:54.028Z,33.20
2018-05-27T06:58:22.308Z,34.10
2018-05-27T07:00:49.854Z,34.10
2018-05-27T07:03:17.357Z,34.40
2018-05-27T07:05:44.874Z,35.10
2018-05-27T07:08:12.378Z,35.70
2018-05-27T07:10:39.903Z,36.00
2018-05-27T07:13:08.478Z,36.30
2018-05-27T07:15:35.987Z,36.30
2018-05-27T07:18:03.540Z,36.40
2018-05-27T07:20:32.642Z,36.70
2018-05-27T07:23:00.177Z,37.00
2018-05-27T07:25:27.673Z,37.00
2018-05-27T07:27:55.965Z,36.80
2018-05-27T07:30:23.440Z,36.80
2018-05-27T07:32:50.918Z,37.30
2018-05-27T07:35:20.069Z,37.70
2018-05-27T07:37:47.537Z,37.60
2018-05-27T07:40:18.748Z,37.60
2018-05-27T07:42:47.085Z,37.60
2018-05-27T07:45:14.574Z,37.60
2018-05-27T07:47:42.143Z,37.60
2018-05-27T07:50:10.241Z,37.70
2018-05-27T07:52:37.819Z,38.00
2018-05-27T07:55:06.193Z,38.70
2018-05-27T07:57:35.637Z,38.60
2018-05-27T08:00:03.128Z,38.70
2018-05-27T08:02:30.652Z,39.00
2018-05-27T08:04:58.145Z,39.30
2018-05-27T08:07:25.720Z,39.70
2018-05-27T08:09:53.294Z,39.80
2018-05-27T08:12:20.837Z,40.00
2018-05-27T08:14:48.309Z,40.00
2018-05-27T08:17:15.917Z,40.00
2018-05-27T08:19:43.526Z,39.60
2018-05-27T08:22:11.739Z,39.50
2018-05-27T08:24:39.217Z,39.50
2018-05-27T08:27:06.736Z,40.00
2018-05-27T08:29:34.206Z,40.30
2018-05-27T08:32:01.795Z,40.80
2018-05-27T08:34:29.861Z,41.30
2018-05-27T08:36:58.129Z,42.10
2018-05-27T08:39:26.367Z,42.40
2018-05-27T08:41:53.865Z,42.40
2018-05-27T08:44:22.106Z,43.20
2018-05-27T08:46:49.721Z,43.20
2018-05-27T08:49:17.219Z,43.20
2018-05-27T08:51:44.740Z,42.90
2018-05-27T08:54:12.251Z,42.10
2018-05-27T08:56:40.615Z,41.10
2018-05-27T08:59:08.296Z,41.10
2018-05-27T09:01:36.533Z,41.00
2018-05-27T09:04:04.019Z,41.00
2018-05-27T09:06:32.275Z,41.40
2018-05-27T09:08:59.810Z,41.40
2018-05-27T09:11:28.021Z,41.80
2018-05-27T09:13:56.353Z,42.20
2018-05-27T09:16:23.832Z,42.20
2018-05-27T09:18:51.348Z,42.40
2018-05-27T09:21:18.857Z,42.40
2018-05-27T09:23:46.350Z,42.20
2018-05-27T09:26:13.869Z,42.00
2018-05-27T09:28:41.361Z,41.70
2018-05-27T09:31:08.840Z,41.80
2018-05-27T09:33:36.373Z,42.00
2018-05-27T09:36:03.837Z,41.80
2018-05-27T09:38:31.411Z,41.80
2018-05-27T09:41:00.065Z,41.70
2018-05-27T09:43:27.556Z,41.40
2018-05-27T09:45:55.053Z,40.50
2018-05-27T09:48:22.538Z,40.20
2018-05-27T09:50:50.105Z,39.90
2018-05-27T09:53:17.582Z,39.60
2018-05-27T09:55:46.055Z,39.60
2018-05-27T09:58:14.395Z,39.60
2018-05-27T10:00:42.669Z,39.80
2018-05-27T10:03:10.925Z,39.90
2018-05-27T10:05:38.421Z,39.90
2018-05-27T10:08:05.906Z,40.10
2018-05-27T10:10:33.416Z,40.00
2018-05-27T10:13:01.684Z,40.70
2018-05-27T10:15:29.669Z,40.70
2018-05-27T10:17:57.149Z,41.00
2018-05-27T10:22:58.692Z,41.30
2018-05-27T10:25:26.954Z,41.70
2018-05-27T10:27:55.207Z,42.00
2018-05-27T10:30:22.706Z,42.00
2018-05-27T10:32:50.218Z,42.20
2018-05-27T10:35:17.785Z,42.30
2018-05-27T10:37:45.392Z,42.20
2018-05-27T10:40:12.930Z,42.10
2018-05-27T10:42:40.400Z,41.60
2018-05-27T10:45:07.878Z,41.40
2018-05-27T10:47:36.151Z,41.10
2018-05-27T10:50:03.684Z,40.10
2018-05-27T10:52:31.190Z,39.10
2018-05-27T10:54:58.678Z,38.40
2018-05-27T10:57:26.927Z,37.40
2018-05-27T10:59:54.411Z,37.40
2018-05-27T11:02:22.668Z,36.40
2018-05-27T11:04:51.594Z,36.00
2018-05-27T11:07:19.162Z,36.00
2018-05-27T11:09:46.815Z,35.60
2018-05-27T11:12:14.359Z,35.30
2018-05-27T11:14:41.819Z,34.70
2018-05-27T11:17:09.342Z,34.40
2018-05-27T11:19:36.820Z,34.30
2018-05-27T11:22:05.091Z,33.60
2018-05-27T11:24:33.354Z,33.10
2018-05-27T11:27:01.406Z,33.10
2018-05-27T11:29:30.221Z,33.00
2018-05-27T11:31:59.451Z,32.60
2018-05-27T11:34:26.946Z,32.50
2018-05-27T11:36:54.496Z,32.50
2018-05-27T11:39:21.982Z,32.20
2018-05-27T11:41:50.223Z,31.40
2018-05-27T11:44:17.719Z,31.30
2018-05-27T11:46:45.966Z,31.00
2018-05-27T11:49:13.466Z,31.00
2018-05-27T11:51:40.950Z,30.90
2018-05-27T11:54:08.430Z,30.80
2018-05-27T11:56:37.458Z,30.60
2018-05-27T11:59:04.949Z,30.60
2018-05-27T12:01:32.431Z,30.60
2018-05-27T12:04:00.258Z,30.60
2018-05-27T12:06:27.826Z,30.70
2018-05-27T12:08:55.466Z,30.70
2018-05-27T12:11:22.955Z,30.90
2018-05-27T12:13:53.676Z,31.10
2018-05-27T12:16:21.172Z,31.10
2018-05-27T12:18:51.158Z,31.20
2018-05-27T12:21:18.665Z,31.20
2018-05-27T12:23:48.046Z,31.50
2018-05-27T12:26:15.550Z,31.50
2018-05-27T12:28:43.265Z,31.60
2018-05-27T12:31:10.745Z,31.80
2018-05-27T12:33:39.014Z,31.90
2018-05-27T12:36:07.257Z,31.90
2018-05-27T12:38:34.743Z,31.80
2018-05-27T12:41:03.001Z,31.80
2018-05-27T12:43:31.985Z,31.60
2018-05-27T12:45:59.494Z,31.60
2018-05-27T12:48:26.968Z,31.40
2018-05-27T12:50:54.472Z,31.30
2018-05-27T12:53:21.933Z,31.30
2018-05-27T12:55:50.818Z,31.00
2018-05-27T12:58:18.345Z,31.00
2018-05-27T13:00:47.262Z,30.90
2018-05-27T13:03:15.548Z,30.60
2018-05-27T13:05:43.825Z,30.60
2018-05-27T13:08:11.293Z,30.60
2018-05-27T13:10:38.805Z,30.60
2018-05-27T13:13:07.074Z,30.50
2018-05-27T13:15:34.555Z,30.50
2018-05-27T13:18:02.835Z,30.40
2018-05-27T13:20:31.089Z,30.50
2018-05-27T13:22:58.657Z,30.50
2018-05-27T13:25:26.147Z,30.20
2018-05-27T13:27:53.877Z,30.20
2018-05-27T13:30:21.340Z,30.10
2018-05-27T13:32:49.667Z,30.10
2018-05-27T13:35:17.187Z,30.10
2018-05-27T13:37:44.716Z,30.20
2018-05-27T13:40:12.316Z,30.30
2018-05-27T13:42:39.860Z,30.30
2018-05-27T13:45:07.378Z,30.20
2018-05-27T13:47:34.909Z,30.20
2018-05-27T13:50:02.403Z,30.30
2018-05-27T13:52:29.906Z,30.40
2018-05-27T13:54:57.413Z,30.30
2018-05-27T13:57:25.018Z,30.30
2018-05-27T13:59:52.493Z,30.30
2018-05-27T14:02:20.005Z,30.40
2018-05-27T14:04:49.497Z,30.30
2018-05-27T14:07:18.007Z,30.30
2018-05-27T14:09:45.525Z,30.40
2018-05-27T14:12:13.753Z,30.50
2018-05-27T14:14:41.367Z,30.50
2018-05-27T14:17:08.994Z,30.60
2018-05-27T14:19:36.465Z,30.60
2018-05-27T14:22:04.052Z,30.60
2018-05-27T14:24:32.381Z,30.90
2018-05-27T14:27:00.703Z,31.00
2018-05-27T14:29:28.955Z,31.20
2018-05-27T14:31:56.428Z,31.20
2018-05-27T14:34:24.700Z,31.50
2018-05-27T14:36:52.944Z,31.60
2018-05-27T14:39:20.415Z,31.60
2018-05-27T14:41:47.904Z,31.70
2018-05-27T14:44:16.209Z,31.70
2018-05-27T14:46:43.820Z,31.70
2018-05-27T14:49:11.574Z,31.70
2018-05-27T14:51:39.825Z,31.20
2018-05-27T14:54:07.353Z,31.20
2018-05-27T14:56:34.842Z,31.20
2018-05-27T14:59:02.362Z,31.00
2018-05-27T15:01:29.862Z,30.60
2018-05-27T15:03:57.387Z,30.40
2018-05-27T15:06:24.885Z,30.20
2018-05-27T15:08:52.402Z,29.90
2018-05-27T15:11:20.053Z,29.60
2018-05-27T15:13:47.784Z,29.50
2018-05-27T15:16:15.320Z,29.40
2018-05-27T15:18:42.886Z,29.30
2018-05-27T15:21:10.385Z,29.00
2018-05-27T15:23:37.984Z,28.80
2018-05-27T15:26:05.473Z,28.50
2018-05-27T15:28:33.783Z,28.00
2018-05-27T15:31:02.285Z,28.00
2018-05-27T15:33:29.848Z,27.80
2018-05-27T15:35:58.114Z,27.80
2018-05-27T15:38:25.638Z,27.90
2018-05-27T15:40:53.134Z,28.00
2018-05-27T15:43:20.649Z,28.00
2018-05-27T15:45:49.498Z,27.80
2018-05-27T15:48:17.843Z,27.80
2018-05-27T15:50:45.603Z,27.80
2018-05-27T15:53:13.136Z,27.70
2018-05-27T15:55:40.629Z,27.60
2018-05-27T15:58:08.664Z,27.50
2018-05-27T16:00:36.162Z,27.50
2018-05-27T16:03:03.641Z,27.60
2018-05-27T16:05:31.893Z,27.40
2018-05-27T16:07:59.371Z,27.40
2018-05-27T16:10:26.851Z,27.40
2018-05-27T16:12:54.340Z,27.20
2018-05-27T16:15:21.836Z,27.00
2018-05-27T16:17:49.578Z,26.70
2018-05-27T16:20:17.152Z,26.50
2018-05-27T16:22:44.619Z,26.30
2018-05-27T16:25:12.099Z,26.10
2018-05-27T16:27:39.587Z,26.00
2018-05-27T16:30:07.153Z,26.00
2018-05-27T16:32:34.640Z,25.80
2018-05-27T16:35:02.322Z,25.70
2018-05-27T16:37:29.880Z,25.50
2018-05-27T16:39:58.188Z,25.20
2018-05-27T16:42:25.747Z,25.20
2018-05-27T16:44:53.226Z,25.20
2018-05-27T16:47:20.984Z,25.10
2018-05-27T16:49:50.140Z,25.00
2018-05-27T16:52:17.696Z,25.00
2018-05-27T16:54:45.195Z,24.90
2018-05-27T16:57:12.704Z,24.70
2018-05-27T16:59:40.232Z,24.50
2018-05-27T17:02:07.777Z,24.30
2018-05-27T17:04:35.257Z,24.00
2018-05-27T17:07:03.535Z,23.20
2018-05-27T17:09:32.389Z,22.80
2018-05-27T17:11:59.987Z,22.70
2018-05-27T17:14:28.252Z,22.20
2018-05-27T17:16:55.910Z,22.20
2018-05-27T17:19:23.377Z,22.10
2018-05-27T17:21:51.683Z,21.90
2018-05-27T17:24:19.858Z,21.90
2018-05-27T17:26:47.349Z,21.80
2018-05-27T17:29:14.862Z,21.70
2018-05-27T17:31:42.397Z,21.50
2018-05-27T17:34:10.680Z,21.70
2018-05-27T17:36:38.940Z,21.80
2018-05-27T17:39:07.253Z,21.80
2018-05-27T17:41:34.737Z,21.80
2018-05-27T17:44:02.267Z,21.80
2018-05-27T17:46:29.861Z,21.80
2018-05-27T17:48:57.358Z,21.80
2018-05-27T17:51:25.656Z,21.80
2018-05-27T17:53:53.164Z,21.70
2018-05-27T17:56:20.644Z,21.70
2018-05-27T17:58:48.295Z,21.70
2018-05-27T18:01:16.553Z,21.70
2018-05-27T18:03:44.373Z,21.60
2018-05-27T18:06:11.916Z,21.70
2018-05-27T18:08:39.417Z,21.80
2018-05-27T18:11:07.746Z,21.90
2018-05-27T18:13:36.161Z,22.00
2018-05-27T18:16:03.701Z,22.00
2018-05-27T18:18:31.171Z,22.10
2018-05-27T18:20:58.666Z,22.20
2018-05-27T18:23:27.023Z,22.40
2018-05-27T18:25:54.521Z,22.40
2018-05-27T18:28:22.008Z,22.40
2018-05-27T18:30:49.537Z,22.50
2018-05-27T18:33:17.049Z,22.60
2018-05-27T18:35:44.586Z,22.70
2018-05-27T18:38:12.151Z,22.70
2018-05-27T18:40:39.654Z,22.70
2018-05-27T18:43:07.898Z,22.80
2018-05-27T18:45:35.468Z,22.80
2018-05-27T18:48:02.930Z,22.80
2018-05-27T18:50:31.204Z,22.90
2018-05-27T18:52:59.481Z,23.00
2018-05-27T18:55:27.746Z,22.90
2018-05-27T18:57:55.266Z,22.90
2018-05-27T19:00:22.751Z,23.00
2018-05-27T19:02:50.989Z,23.00
2018-05-27T19:05:18.539Z,22.90
2018-05-27T19:07:46.351Z,23.00
2018-05-27T19:10:15.355Z,23.10
2018-05-27T19:12:42.896Z,23.10
2018-05-27T19:15:11.873Z,23.20
2018-05-27T19:17:39.350Z,23.20
2018-05-27T19:20:06.809Z,23.20
2018-05-27T19:22:35.090Z,23.30
2018-05-27T19:25:03.349Z,23.30
2018-05-27T19:27:31.619Z,23.30
2018-05-27T19:29:59.166Z,23.30
2018-05-27T19:32:26.669Z,23.20
2018-05-27T19:34:54.902Z,23.20
2018-05-27T19:37:22.411Z,23.10
2018-05-27T19:39:49.894Z,23.10
2018-05-27T19:42:17.436Z,23.10
2018-05-27T19:44:45.628Z,22.90
2018-05-27T19:47:13.524Z,22.90
2018-05-27T19:49:41.013Z,22.90
2018-05-27T19:52:08.499Z,22.80
2018-05-27T19:54:35.987Z,22.70
2018-05-27T19:57:03.523Z,22.60
2018-05-27T19:59:31.036Z,22.50
2018-05-27T20:01:58.509Z,22.40
2018-05-27T20:04:26.774Z,22.30
2018-05-27T20:06:54.263Z,22.20
2018-05-27T20:09:21.834Z,22.20
2018-05-27T20:11:49.352Z,22.10
2018-05-27T20:14:16.822Z,22.00
2018-05-27T20:16:44.343Z,21.90
2018-05-27T20:19:12.581Z,21.80
2018-05-27T20:21:40.490Z,21.80
2018-05-27T20:24:08.000Z,21.80
2018-05-27T20:26:35.489Z,21.80
2018-05-27T20:29:03.747Z,21.80
2018-05-27T20:31:31.528Z,21.70
2018-05-27T20:33:59.771Z,21.60
2018-05-27T20:36:28.212Z,21.60
2018-05-27T20:38:55.720Z,21.60
2018-05-27T20:41:23.259Z,21.60
2018-05-27T20:43:50.728Z,21.50
2018-05-27T20:46:18.285Z,21.50
2018-05-27T20:48:45.757Z,21.50
2018-05-27T20:51:14.023Z,21.40
2018-05-27T20:53:41.483Z,21.40
2018-05-27T20:56:08.973Z,21.40
2018-05-27T20:58:36.497Z,21.30
2018-05-27T21:01:04.754Z,21.20
2018-05-27T21:03:32.376Z,21.20
2018-05-27T21:06:00.045Z,21.20
2018-05-27T21:08:27.540Z,21.20
2018-05-27T21:10:55.817Z,21.10
2018-05-27T21:13:24.800Z,21.00
2018-05-27T21:15:52.310Z,21.00
2018-05-27T21:18:19.786Z,21.00
2018-05-27T21:20:47.243Z,21.00
2018-05-27T21:23:14.782Z,21.00
2018-05-27T21:25:42.222Z,21.00
2018-05-27T21:28:09.724Z,21.00
2018-05-27T21:30:38.007Z,20.90
2018-05-27T21:33:06.286Z,20.90
2018-05-27T21:35:33.764Z,20.90
2018-05-27T21:38:02.010Z,20.90
2018-05-27T21:40:29.472Z,20.90
2018-05-27T21:42:56.966Z,20.80
2018-05-27T21:45:24.437Z,20.70
2018-05-27T21:47:51.924Z,20.70
2018-05-27T21:50:19.410Z,20.60
2018-05-27T21:52:47.071Z,20.50
2018-05-27T21:55:15.327Z,20.40
2018-05-27T21:57:43.269Z,20.40
2018-05-27T22:00:12.689Z,20.40
2018-05-27T22:02:40.849Z,20.30
2018-05-27T22:05:08.339Z,20.20
2018-05-27T22:07:36.576Z,20.10
2018-05-27T22:10:04.074Z,20.10
2018-05-27T22:12:32.312Z,20.00
2018-05-27T22:14:59.808Z,20.00
2018-05-27T22:17:28.752Z,19.90
2018-05-27T22:19:56.266Z,19.90
2018-05-27T22:22:24.510Z,19.80
2018-05-27T22:24:52.015Z,19.70
2018-05-27T22:27:19.489Z,19.70
2018-05-27T22:29:46.993Z,19.60
2018-05-27T22:32:15.245Z,19.60
2018-05-27T22:34:42.749Z,19.50
2018-05-27T22:37:11.003Z,19.60
2018-05-27T22:39:39.272Z,19.60
2018-05-27T22:42:06.752Z,19.60
2018-05-27T22:44:34.260Z,19.60
2018-05-27T22:47:01.762Z,19.60
2018-05-27T22:49:31.374Z,19.60
2018-05-27T22:51:58.858Z,19.50
2018-05-27T22:54:26.337Z,19.40
2018-05-27T22:56:53.837Z,19.40
2018-05-27T22:59:22.076Z,19.30
2018-05-27T23:01:49.549Z,19.30
2018-05-27T23:04:17.798Z,19.20
2018-05-27T23:06:45.298Z,19.10
2018-05-27T23:09:13.548Z,19.10
2018-05-27T23:11:41.070Z,19.00
2018-05-27T23:14:08.558Z,19.00
2018-05-27T23:16:36.071Z,19.00
2018-05-27T23:19:03.540Z,19.00
2018-05-27T23:21:31.050Z,18.90
2018-05-27T23:23:59.294Z,19.00
2018-05-27T23:26:28.358Z,19.10
2018-05-27T23:28:55.834Z,19.00
2018-05-27T23:31:23.345Z,19.10
2018-05-27T23:33:51.681Z,19.10
2018-05-27T23:36:19.860Z,19.10
2018-05-27T23:38:48.136Z,19.20
2018-05-27T23:41:15.633Z,19.10
2018-05-27T23:43:43.113Z,19.20
2018-05-27T23:46:10.700Z,19.10
2018-05-27T23:48:40.051Z,19.10
2018-05-27T23:51:07.540Z,19.00
2018-05-27T23:53:35.055Z,19.00
2018-05-27T23:56:02.545Z,19.00
2018-05-27T23:58:30.054Z,19.00
